createdAt,value
2022-10-22T00:01:54.680Z,62.30
2022-10-22T00:03:56.373Z,52.70
2022-10-22T00:05:58.211Z,48.53
2022-10-22T00:07:59.983Z,51.90
2022-10-22T00:10:02.136Z,49.97
2022-10-22T00:12:04.157Z,60.90
2022-10-22T00:14:06.656Z,60.95
2022-10-22T00:16:08.735Z,60.80
2022-10-22T00:18:10.485Z,52.53
2022-10-22T00:20:12.671Z,57.10
2022-10-22T00:22:14.450Z,46.53
2022-10-22T00:24:16.211Z,46.42
2022-10-22T00:26:18.241Z,52.05
2022-10-22T00:28:20.060Z,52.63
2022-10-22T00:30:21.853Z,59.60
2022-10-22T00:32:23.842Z,57.97
2022-10-22T00:34:25.697Z,52.92
2022-10-22T00:36:27.532Z,45.80
2022-10-22T00:38:29.369Z,44.15
2022-10-22T00:40:31.464Z,46.90
2022-10-22T00:42:33.202Z,41.33
2022-10-22T00:45:12.061Z,43.35
2022-10-22T00:47:15.179Z,40.30
2022-10-22T00:49:16.943Z,38.58
2022-10-22T00:51:20.671Z,39.47
2022-10-22T00:55:45.575Z,49.90
2022-10-22T00:57:48.055Z,46.58
2022-10-22T00:59:49.987Z,51.65
2022-10-22T01:01:51.704Z,48.47
2022-10-22T01:03:53.966Z,47.22
2022-10-22T01:06:00.996Z,47.65
2022-10-22T01:08:03.016Z,48.00
2022-10-22T01:10:33.664Z,53.70
2022-10-22T01:13:19.643Z,43.25
2022-10-22T01:15:33.816Z,47.72
2022-10-22T01:17:56.120Z,52.03
2022-10-22T01:20:32.247Z,42.88
2022-10-22T01:22:46.421Z,43.08
2022-10-22T01:25:17.395Z,43.03
2022-10-22T01:27:40.980Z,42.90
2022-10-22T01:29:48.368Z,42.72
2022-10-22T01:32:05.111Z,40.85
2022-10-22T01:34:12.102Z,40.65
2022-10-22T01:36:15.431Z,44.40
2022-10-22T01:38:22.289Z,50.22
2022-10-22T01:40:24.876Z,51.10
2022-10-22T01:42:26.621Z,47.33
2022-10-22T01:44:30.794Z,53.78
2022-10-22T01:46:32.906Z,43.45
2022-10-22T01:49:16.266Z,48.50
2022-10-22T01:51:37.735Z,44.72
2022-10-22T01:54:14.862Z,47.85
2022-10-22T01:56:40.815Z,44.38
2022-10-22T01:59:00.211Z,38.85
2022-10-22T02:01:05.028Z,43.95
2022-10-22T02:03:23.005Z,43.42
2022-10-22T02:05:29.638Z,44.03
2022-10-22T02:07:36.123Z,50.42
2022-10-22T02:09:38.823Z,42.40
2022-10-22T02:11:42.165Z,43.55
2022-10-22T02:13:48.644Z,43.63
2022-10-22T02:15:52.782Z,44.33
2022-10-22T02:17:58.712Z,44.45
2022-10-22T02:20:20.358Z,42.50
2022-10-22T02:22:22.366Z,46.38
2022-10-22T02:24:24.416Z,45.40
2022-10-22T02:26:39.489Z,40.58
2022-10-22T02:29:03.661Z,46.88
2022-10-22T02:31:26.436Z,37.00
2022-10-22T02:33:33.959Z,40.03
2022-10-22T02:35:36.987Z,37.42
2022-10-22T02:37:40.242Z,39.03
2022-10-22T02:39:42.741Z,43.25
2022-10-22T02:41:44.743Z,38.72
2022-10-22T02:43:51.524Z,34.33
2022-10-22T02:45:53.294Z,37.70
2022-10-22T02:47:55.107Z,32.35
2022-10-22T02:49:56.883Z,33.65
2022-10-22T02:51:58.595Z,42.28
2022-10-22T02:54:00.404Z,35.50
2022-10-22T02:56:02.217Z,32.75
2022-10-22T02:58:03.936Z,33.80
2022-10-22T03:00:07.670Z,39.63
2022-10-22T03:04:11.029Z,47.88
2022-10-22T03:06:13.027Z,37.40
2022-10-22T03:08:14.812Z,32.88
2022-10-22T03:10:16.583Z,37.47
2022-10-22T03:12:18.434Z,38.95
2022-10-22T03:14:20.374Z,35.33
2022-10-22T03:16:22.477Z,33.40
2022-10-22T03:18:24.749Z,38.78
2022-10-22T03:20:26.870Z,35.83
2022-10-22T03:22:32.599Z,34.08
2022-10-22T03:24:42.841Z,35.22
2022-10-22T03:26:45.686Z,35.95
2022-10-22T03:28:47.467Z,39.30
2022-10-22T03:30:49.565Z,42.35
2022-10-22T03:32:51.507Z,33.65
2022-10-22T03:34:53.207Z,35.95
2022-10-22T03:36:57.667Z,35.83
2022-10-22T03:39:01.372Z,37.00
2022-10-22T03:43:05.254Z,38.33
2022-10-22T03:45:08.108Z,33.55
2022-10-22T03:47:10.394Z,44.27
2022-10-22T03:49:12.245Z,59.08
2022-10-22T03:51:14.361Z,37.20
2022-10-22T03:53:16.056Z,37.90
2022-10-22T03:55:17.918Z,47.60
2022-10-22T03:57:19.738Z,36.33
2022-10-22T03:59:21.423Z,38.42
2022-10-22T04:01:24.519Z,35.63
2022-10-22T04:03:26.330Z,39.65
2022-10-22T04:05:28.027Z,36.05
2022-10-22T04:07:29.996Z,33.83
2022-10-22T04:09:32.873Z,36.75
2022-10-22T04:11:34.557Z,34.65
2022-10-22T04:13:36.720Z,37.47
2022-10-22T04:15:38.605Z,37.95
2022-10-22T04:17:40.654Z,34.30
2022-10-22T04:19:42.868Z,36.25
2022-10-22T04:21:44.917Z,39.70
2022-10-22T04:23:48.393Z,33.33
2022-10-22T04:25:50.168Z,32.90
2022-10-22T04:27:51.948Z,36.53
2022-10-22T04:29:53.626Z,35.88
2022-10-22T04:31:55.486Z,31.17
2022-10-22T04:34:00.594Z,36.08
2022-10-22T04:36:17.112Z,32.22
2022-10-22T04:38:19.048Z,35.40
2022-10-22T04:40:21.053Z,34.85
2022-10-22T04:42:22.749Z,34.10
2022-10-22T04:44:24.661Z,36.55
2022-10-22T04:46:28.848Z,35.95
2022-10-22T04:48:30.577Z,30.80
2022-10-22T04:50:32.481Z,33.45
2022-10-22T04:52:34.324Z,31.00
2022-10-22T04:54:36.149Z,33.70
2022-10-22T04:56:38.120Z,31.00
2022-10-22T04:58:40.120Z,33.47
2022-10-22T05:00:41.896Z,37.97
2022-10-22T05:02:43.981Z,31.05
2022-10-22T05:04:45.659Z,34.25
2022-10-22T05:06:47.832Z,38.50
2022-10-22T05:08:57.563Z,32.53
2022-10-22T05:10:59.335Z,30.83
2022-10-22T05:13:01.030Z,49.38
2022-10-22T05:15:03.066Z,42.00
2022-10-22T05:17:04.741Z,35.58
2022-10-22T05:19:07.116Z,37.88
2022-10-22T05:21:11.276Z,35.75
2022-10-22T05:23:12.960Z,46.30
2022-10-22T05:25:14.715Z,80.40
2022-10-22T05:27:16.575Z,66.88
2022-10-22T05:29:19.064Z,59.78
2022-10-22T05:31:20.942Z,51.72
2022-10-22T05:33:24.128Z,69.22
2022-10-22T05:35:26.037Z,91.18
2022-10-22T05:37:27.741Z,55.53
2022-10-22T05:39:29.747Z,54.78
2022-10-22T05:41:33.245Z,61.67
2022-10-22T05:43:35.345Z,121.07
2022-10-22T05:45:41.233Z,90.03
2022-10-22T05:47:42.947Z,43.03
2022-10-22T05:49:44.660Z,54.97
2022-10-22T05:51:47.007Z,98.28
2022-10-22T05:53:52.862Z,80.53
2022-10-22T05:55:54.576Z,73.32
2022-10-22T05:57:56.522Z,66.38
2022-10-22T05:59:58.258Z,57.33
2022-10-22T06:02:00.008Z,66.32
2022-10-22T06:04:04.819Z,58.00
2022-10-22T06:06:37.899Z,51.05
2022-10-22T06:08:39.673Z,59.05
2022-10-22T06:10:43.772Z,54.83
2022-10-22T06:12:47.755Z,49.17
2022-10-22T06:14:49.466Z,59.80
2022-10-22T06:16:51.362Z,56.78
2022-10-22T06:18:53.059Z,48.95
2022-10-22T06:20:54.813Z,53.78
2022-10-22T06:22:57.025Z,48.70
2022-10-22T06:24:58.711Z,56.10
2022-10-22T06:27:00.411Z,48.40
2022-10-22T06:29:02.682Z,56.08
2022-10-22T06:31:05.292Z,50.63
2022-10-22T06:33:07.021Z,52.67
2022-10-22T06:35:08.913Z,49.13
2022-10-22T06:37:10.771Z,52.45
2022-10-22T06:39:17.780Z,52.92
2022-10-22T06:41:19.908Z,52.17
2022-10-22T06:43:21.625Z,48.72
2022-10-22T06:45:23.293Z,55.83
2022-10-22T06:47:25.175Z,52.60
2022-10-22T06:49:26.889Z,46.40
2022-10-22T06:51:29.039Z,51.00
2022-10-22T06:53:31.029Z,50.17
2022-10-22T06:55:32.733Z,48.83
2022-10-22T06:57:34.448Z,52.70
2022-10-22T06:59:36.543Z,51.42
2022-10-22T07:01:38.472Z,54.58
2022-10-22T07:03:42.478Z,46.22
2022-10-22T07:05:44.638Z,48.63
2022-10-22T07:07:46.397Z,52.05
2022-10-22T07:09:48.601Z,55.10
2022-10-22T07:11:50.504Z,47.40
2022-10-22T07:13:54.702Z,56.22
2022-10-22T07:15:56.468Z,49.97
2022-10-22T07:17:58.501Z,50.13
2022-10-22T07:20:00.248Z,59.05
2022-10-22T07:22:02.160Z,52.35
2022-10-22T07:24:04.190Z,56.78
2022-10-22T07:26:07.231Z,62.50
2022-10-22T07:28:09.062Z,52.22
2022-10-22T07:30:11.442Z,60.25
2022-10-22T07:32:13.129Z,55.53
2022-10-22T07:34:15.007Z,55.17
2022-10-22T07:36:17.214Z,63.78
2022-10-22T07:38:18.924Z,63.70
2022-10-22T07:40:20.920Z,60.72
2022-10-22T07:42:22.832Z,67.10
2022-10-22T07:44:24.567Z,69.65
2022-10-22T07:46:26.657Z,66.68
2022-10-22T07:48:29.295Z,62.08
2022-10-22T07:50:31.110Z,61.08
2022-10-22T07:52:33.421Z,68.35
2022-10-22T07:54:35.252Z,63.25
2022-10-22T07:56:36.976Z,60.70
2022-10-22T07:58:38.718Z,55.80
2022-10-22T08:00:41.129Z,58.58
2022-10-22T08:02:43.260Z,64.82
2022-10-22T08:04:45.210Z,52.10
2022-10-22T08:06:47.369Z,49.58
2022-10-22T08:08:49.758Z,55.60
2022-10-22T08:10:52.501Z,52.38
2022-10-22T08:12:54.937Z,56.30
2022-10-22T08:14:56.626Z,52.15
2022-10-22T08:16:58.317Z,52.53
2022-10-22T08:19:00.241Z,57.42
2022-10-22T08:21:01.941Z,61.25
2022-10-22T08:23:03.733Z,52.85
2022-10-22T08:25:05.984Z,55.88
2022-10-22T08:27:07.684Z,53.10
2022-10-22T08:29:09.369Z,54.67
2022-10-22T08:31:11.717Z,52.25
2022-10-22T08:33:13.413Z,50.63
2022-10-22T08:35:16.955Z,50.88
2022-10-22T08:37:19.766Z,61.03
2022-10-22T08:39:22.174Z,54.50
2022-10-22T08:41:24.513Z,54.15
2022-10-22T08:44:03.443Z,53.88
2022-10-22T08:46:33.244Z,52.97
2022-10-22T08:48:53.030Z,56.47
2022-10-22T08:50:57.731Z,58.88
2022-10-22T08:53:04.592Z,57.25
2022-10-22T08:55:14.604Z,54.15
2022-10-22T08:57:39.700Z,56.67
2022-10-22T08:59:47.172Z,56.45
2022-10-22T09:01:53.305Z,54.20
2022-10-22T09:04:14.043Z,48.00
2022-10-22T09:06:25.125Z,55.50
2022-10-22T09:08:27.026Z,52.25
2022-10-22T09:10:35.630Z,54.50
2022-10-22T09:12:37.443Z,55.70
2022-10-22T09:14:39.578Z,54.15
2022-10-22T09:17:02.624Z,57.47
2022-10-22T09:19:26.232Z,60.83
2022-10-22T09:21:55.766Z,55.13
2022-10-22T09:24:29.545Z,50.65
2022-10-22T09:26:37.906Z,53.65
2022-10-22T09:28:39.650Z,49.10
2022-10-22T09:30:41.806Z,56.83
2022-10-22T09:32:43.943Z,58.05
2022-10-22T09:34:48.104Z,52.42
2022-10-22T09:37:04.987Z,52.55
2022-10-22T09:39:24.121Z,54.60
2022-10-22T09:41:28.364Z,54.78
2022-10-22T09:43:30.308Z,48.10
2022-10-22T09:45:32.452Z,50.30
2022-10-22T09:47:43.478Z,47.67
2022-10-22T09:50:18.439Z,53.15
2022-10-22T09:52:30.540Z,47.50
2022-10-22T09:54:32.250Z,48.47
2022-10-22T09:56:37.301Z,46.83
2022-10-22T09:58:47.167Z,49.58
2022-10-22T10:00:57.442Z,42.47
2022-10-22T10:03:00.289Z,45.63
2022-10-22T10:05:03.889Z,45.35
2022-10-22T10:07:16.637Z,51.75
2022-10-22T10:09:23.468Z,41.58
2022-10-22T10:11:50.361Z,45.97
2022-10-22T10:13:52.028Z,44.53
2022-10-22T10:16:02.613Z,40.20
2022-10-22T10:18:33.886Z,40.50
2022-10-22T10:20:38.708Z,40.60
2022-10-22T10:22:55.354Z,37.80
2022-10-22T10:25:12.419Z,36.88
2022-10-22T10:27:31.969Z,41.10
2022-10-22T10:29:51.777Z,35.55
2022-10-22T10:32:22.324Z,39.80
2022-10-22T10:34:28.895Z,37.10
2022-10-22T10:36:56.750Z,38.90
2022-10-22T10:39:38.874Z,38.35
2022-10-22T10:41:59.329Z,38.47
2022-10-22T10:44:14.611Z,37.65
2022-10-22T10:46:52.458Z,42.20
2022-10-22T10:49:09.893Z,109.40
2022-10-22T10:51:33.162Z,60.17
2022-10-22T10:54:25.519Z,51.75
2022-10-22T10:56:41.842Z,44.47
2022-10-22T10:59:13.741Z,60.15
2022-10-22T11:01:27.221Z,40.42
2022-10-22T11:04:13.382Z,37.67
2022-10-22T11:06:21.602Z,44.15
2022-10-22T11:08:40.682Z,40.20
2022-10-22T11:11:01.664Z,41.42
2022-10-22T11:13:31.959Z,49.25
2022-10-22T11:15:39.624Z,58.20
2022-10-22T11:17:45.777Z,43.00
2022-10-22T11:20:02.621Z,50.50
2022-10-22T11:22:30.407Z,42.80
2022-10-22T11:24:52.199Z,43.83
2022-10-22T11:27:02.808Z,41.92
2022-10-22T11:29:11.754Z,42.63
2022-10-22T11:31:15.855Z,44.58
2022-10-22T11:33:21.496Z,43.55
2022-10-22T11:35:35.998Z,45.00
2022-10-22T11:37:38.301Z,43.47
2022-10-22T11:39:51.372Z,50.30
2022-10-22T11:41:53.369Z,44.55
2022-10-22T11:44:11.705Z,42.25
2022-10-22T11:46:16.337Z,37.95
2022-10-22T11:48:19.255Z,40.75
2022-10-22T11:50:26.727Z,37.28
2022-10-22T11:52:31.355Z,41.30
2022-10-22T11:54:35.695Z,41.88
2022-10-22T11:56:39.047Z,41.78
2022-10-22T11:58:42.472Z,50.50
2022-10-22T12:00:49.036Z,43.50
2022-10-22T12:03:04.845Z,43.08
2022-10-22T12:05:39.260Z,52.13
2022-10-22T12:08:15.915Z,43.10
2022-10-22T12:10:25.721Z,45.70
2022-10-22T12:12:27.441Z,48.25
2022-10-22T12:14:52.363Z,46.92
2022-10-22T12:17:03.224Z,42.58
2022-10-22T12:19:24.405Z,52.17
2022-10-22T12:21:26.695Z,51.80
2022-10-22T12:23:35.189Z,56.50
2022-10-22T12:25:37.178Z,51.35
2022-10-22T12:27:41.160Z,61.92
2022-10-22T12:29:43.292Z,57.92
2022-10-22T12:31:47.390Z,53.05
2022-10-22T12:33:56.574Z,59.15
2022-10-22T12:35:58.575Z,56.17
2022-10-22T12:38:13.377Z,54.22
2022-10-22T12:40:25.765Z,65.82
2022-10-22T12:42:27.652Z,55.50
2022-10-22T12:44:29.369Z,54.50
2022-10-22T12:46:34.525Z,54.97
2022-10-22T12:48:40.272Z,52.53
2022-10-22T12:50:45.961Z,57.55
2022-10-22T12:52:48.935Z,52.97
2022-10-22T12:54:52.508Z,56.92
2022-10-22T12:59:02.180Z,51.60
2022-10-22T13:01:04.561Z,54.53
2022-10-22T13:03:07.261Z,48.15
2022-10-22T13:05:26.576Z,52.08
2022-10-22T13:07:39.244Z,54.92
2022-10-22T13:09:57.669Z,54.83
2022-10-22T13:12:07.762Z,62.42
2022-10-22T13:14:30.294Z,49.72
2022-10-22T13:18:36.438Z,46.95
2022-10-22T13:20:54.272Z,63.47
2022-10-22T13:23:00.965Z,58.10
2022-10-22T13:25:14.715Z,48.33
2022-10-22T13:27:16.668Z,58.30
2022-10-22T13:29:20.351Z,70.18
2022-10-22T13:33:34.795Z,62.58
2022-10-22T13:35:38.227Z,66.53
2022-10-22T13:37:40.258Z,73.65
2022-10-22T13:39:42.340Z,65.28
2022-10-22T13:41:44.031Z,60.72
2022-10-22T13:43:45.913Z,132.13
2022-10-22T13:45:52.134Z,107.03
2022-10-22T13:47:54.859Z,98.88
2022-10-22T13:50:00.527Z,99.95
2022-10-22T13:52:02.303Z,112.80
2022-10-22T13:54:11.008Z,83.10
2022-10-22T13:56:17.854Z,91.95
2022-10-22T13:58:22.051Z,65.50
2022-10-22T14:00:24.751Z,64.20
2022-10-22T14:02:26.995Z,63.13
2022-10-22T14:04:28.719Z,55.90
2022-10-22T14:06:32.545Z,57.80
2022-10-22T14:08:34.443Z,61.60
2022-10-22T14:10:36.185Z,51.05
2022-10-22T14:12:37.939Z,71.60
2022-10-22T14:14:40.000Z,71.63
2022-10-22T14:16:41.941Z,61.20
2022-10-22T14:18:43.825Z,63.15
2022-10-22T14:20:45.766Z,64.25
2022-10-22T14:22:49.107Z,87.60
2022-10-22T14:24:50.786Z,74.72
2022-10-22T14:26:52.885Z,84.78
2022-10-22T14:29:11.442Z,70.57
2022-10-22T14:31:13.723Z,61.05
2022-10-22T14:33:22.562Z,60.63
2022-10-22T14:35:25.904Z,69.38
2022-10-22T14:37:27.627Z,66.88
2022-10-22T14:39:29.589Z,60.65
2022-10-22T14:41:31.373Z,61.05
2022-10-22T14:43:33.075Z,65.57
2022-10-22T14:45:34.819Z,62.35
2022-10-22T14:47:36.519Z,62.78
2022-10-22T14:49:38.286Z,68.40
2022-10-22T14:51:40.067Z,64.70
2022-10-22T14:53:42.289Z,67.40
2022-10-22T14:55:45.712Z,81.88
2022-10-22T14:57:47.832Z,67.65
2022-10-22T14:59:49.556Z,86.82
2022-10-22T15:01:51.260Z,110.43
2022-10-22T15:03:53.154Z,92.57
2022-10-22T15:05:54.881Z,75.18
2022-10-22T15:07:56.560Z,111.35
2022-10-22T15:09:58.307Z,86.78
2022-10-22T15:11:59.985Z,99.40
2022-10-22T15:14:01.833Z,69.07
2022-10-22T15:16:07.712Z,67.70
2022-10-22T15:18:09.412Z,74.13
2022-10-22T15:20:11.186Z,74.15
2022-10-22T15:22:13.868Z,61.88
2022-10-22T15:24:15.642Z,66.68
2022-10-22T15:26:17.894Z,60.45
2022-10-22T15:28:19.903Z,60.97
2022-10-22T15:30:21.617Z,80.93
2022-10-22T15:32:23.299Z,71.82
2022-10-22T15:34:33.829Z,80.25
2022-10-22T15:36:35.573Z,76.93
2022-10-22T15:38:37.318Z,72.25
2022-10-22T15:40:39.387Z,77.43
2022-10-22T15:42:41.368Z,76.93
2022-10-22T15:44:43.309Z,93.57
2022-10-22T15:46:45.324Z,76.78
2022-10-22T15:48:47.072Z,93.35
2022-10-22T15:50:49.311Z,81.03
2022-10-22T15:52:51.129Z,95.13
2022-10-22T15:54:52.909Z,80.10
2022-10-22T15:56:55.603Z,88.75
2022-10-22T15:59:00.217Z,80.47
2022-10-22T16:01:10.950Z,83.72
2022-10-22T16:03:12.704Z,85.75
2022-10-22T16:05:14.724Z,81.13
2022-10-22T16:07:18.040Z,94.90
2022-10-22T16:09:26.243Z,90.07
2022-10-22T16:11:29.093Z,109.55
2022-10-22T16:13:30.810Z,105.68
2022-10-22T16:15:35.224Z,89.25
2022-10-22T16:17:36.980Z,86.10
2022-10-22T16:19:38.735Z,95.68
2022-10-22T16:21:41.023Z,86.40
2022-10-22T16:23:43.282Z,100.13
2022-10-22T16:25:45.972Z,86.65
2022-10-22T16:27:51.843Z,85.43
2022-10-22T16:29:53.724Z,91.95
2022-10-22T16:31:55.430Z,94.18
2022-10-22T16:33:57.960Z,95.40
2022-10-22T16:35:59.819Z,87.97
2022-10-22T16:38:01.517Z,75.90
2022-10-22T16:40:07.391Z,72.47
2022-10-22T16:42:10.260Z,87.50
2022-10-22T16:44:11.957Z,69.28
2022-10-22T16:46:14.502Z,71.03
2022-10-22T16:48:17.786Z,75.75
2022-10-22T16:50:19.518Z,81.97
2022-10-22T16:52:21.262Z,83.32
2022-10-22T16:54:23.150Z,80.22
2022-10-22T16:56:25.683Z,80.78
2022-10-22T16:58:27.483Z,97.95
2022-10-22T17:00:29.275Z,75.10
2022-10-22T17:02:31.096Z,91.88
2022-10-22T17:04:34.268Z,143.48
2022-10-22T17:06:36.120Z,92.70
2022-10-22T17:08:39.474Z,84.72
2022-10-22T17:10:41.465Z,68.72
2022-10-22T17:12:43.495Z,67.00
2022-10-22T17:14:45.407Z,66.00
2022-10-22T17:16:47.179Z,71.32
2022-10-22T17:18:49.549Z,66.72
2022-10-22T17:20:51.252Z,64.53
2022-10-22T17:22:52.989Z,59.47
2022-10-22T17:25:09.434Z,61.28
2022-10-22T17:27:11.177Z,57.63
2022-10-22T17:29:13.971Z,61.95
2022-10-22T17:31:42.436Z,57.77
2022-10-22T17:33:45.124Z,53.10
2022-10-22T17:35:46.843Z,59.28
2022-10-22T17:37:48.642Z,54.83
2022-10-22T17:39:50.387Z,48.63
2022-10-22T17:41:52.701Z,57.45
2022-10-22T17:43:55.368Z,54.80
2022-10-22T17:46:08.201Z,51.95
2022-10-22T17:48:09.957Z,52.42
2022-10-22T17:50:11.827Z,60.42
2022-10-22T17:52:14.490Z,52.83
2022-10-22T17:54:16.323Z,51.13
2022-10-22T17:56:28.923Z,49.17
2022-10-22T17:58:30.680Z,43.55
2022-10-22T18:00:32.559Z,45.67
2022-10-22T18:02:35.795Z,43.05
2022-10-22T18:04:37.593Z,41.15
2022-10-22T18:06:39.299Z,40.58
2022-10-22T18:08:41.340Z,44.58
2022-10-22T18:10:43.230Z,37.72
2022-10-22T18:12:45.676Z,39.60
2022-10-22T18:14:47.477Z,37.67
2022-10-22T18:16:50.225Z,39.47
2022-10-22T18:18:54.453Z,39.03
2022-10-22T18:20:56.293Z,35.03
2022-10-22T18:22:58.104Z,36.40
2022-10-22T18:24:59.890Z,57.55
2022-10-22T18:27:01.931Z,53.20
2022-10-22T18:29:03.693Z,54.25
2022-10-22T18:31:06.900Z,41.40
2022-10-22T18:33:11.877Z,43.60
2022-10-22T18:35:13.653Z,40.83
2022-10-22T18:37:15.392Z,41.38
2022-10-22T18:39:17.456Z,45.67
2022-10-22T18:41:20.361Z,43.50
2022-10-22T18:43:22.130Z,40.55
2022-10-22T18:45:24.046Z,40.88
2022-10-22T18:47:25.836Z,40.03
2022-10-22T18:49:27.575Z,58.58
2022-10-22T18:51:30.980Z,38.25
2022-10-22T18:53:32.878Z,50.00
2022-10-22T18:55:38.066Z,40.45
2022-10-22T18:57:41.791Z,44.70
2022-10-22T19:01:45.226Z,53.97
2022-10-22T19:03:47.345Z,51.15
2022-10-22T19:05:52.918Z,42.97
2022-10-22T19:07:54.714Z,44.47
2022-10-22T19:09:59.031Z,44.22
2022-10-22T19:12:01.237Z,46.90
2022-10-22T19:14:03.403Z,72.03
2022-10-22T19:16:07.225Z,42.10
2022-10-22T19:18:09.124Z,46.00
2022-10-22T19:20:11.263Z,47.83
2022-10-22T19:22:13.125Z,54.00
2022-10-22T19:24:17.888Z,59.03
2022-10-22T19:26:19.652Z,54.60
2022-10-22T19:28:21.487Z,57.50
2022-10-22T19:30:23.282Z,58.08
2022-10-22T19:32:27.500Z,62.38
2022-10-22T19:34:32.671Z,48.30
2022-10-22T19:36:34.416Z,51.10
2022-10-22T19:38:42.213Z,51.13
2022-10-22T19:40:44.435Z,57.88
2022-10-22T19:42:46.188Z,57.17
2022-10-22T19:44:48.727Z,62.17
2022-10-22T19:46:50.441Z,60.63
2022-10-22T19:48:52.474Z,55.72
2022-10-22T19:51:02.707Z,62.70
2022-10-22T19:53:04.556Z,57.33
2022-10-22T19:55:06.406Z,61.28
2022-10-22T19:57:08.737Z,58.08
2022-10-22T19:59:11.331Z,60.28
2022-10-22T20:01:15.441Z,53.22
2022-10-22T20:03:17.506Z,51.03
2022-10-22T20:05:19.586Z,57.50
2022-10-22T20:07:21.330Z,59.05
2022-10-22T20:09:23.151Z,54.00
2022-10-22T20:11:28.999Z,56.67
2022-10-22T20:13:30.850Z,73.40
2022-10-22T20:15:33.445Z,78.32
2022-10-22T20:17:35.278Z,74.47
2022-10-22T20:19:37.235Z,94.75
2022-10-22T20:21:39.032Z,72.00
2022-10-22T20:23:41.607Z,63.97
2022-10-22T20:25:45.466Z,57.20
2022-10-22T20:27:47.196Z,58.45
2022-10-22T20:29:49.006Z,56.40
2022-10-22T20:31:50.766Z,48.72
2022-10-22T20:33:52.904Z,56.15
2022-10-22T20:36:01.920Z,49.72
2022-10-22T20:38:08.233Z,52.35
2022-10-22T20:40:10.591Z,52.70
2022-10-22T20:42:12.414Z,46.72
2022-10-22T20:44:18.440Z,40.70
2022-10-22T20:46:25.601Z,43.13
2022-10-22T20:48:29.059Z,42.72
2022-10-22T20:50:31.385Z,48.78
2022-10-22T20:52:33.067Z,58.47
2022-10-22T20:54:34.921Z,45.47
2022-10-22T20:56:38.872Z,47.38
2022-10-22T20:58:40.659Z,44.53
2022-10-22T21:00:42.797Z,44.65
2022-10-22T21:02:44.590Z,47.80
2022-10-22T21:04:46.527Z,57.95
2022-10-22T21:06:48.406Z,50.03
2022-10-22T21:08:51.300Z,56.85
2022-10-22T21:10:53.111Z,62.22
2022-10-22T21:12:54.947Z,56.78
2022-10-22T21:14:56.669Z,54.10
2022-10-22T21:16:58.904Z,55.92
2022-10-22T21:19:01.107Z,51.72
2022-10-22T21:21:06.803Z,75.65
2022-10-22T21:23:09.641Z,55.80
2022-10-22T21:25:12.246Z,75.03
2022-10-22T21:27:13.985Z,78.85
2022-10-22T21:29:15.658Z,80.57
2022-10-22T21:31:17.594Z,69.65
2022-10-22T21:33:19.454Z,69.32
2022-10-22T21:35:21.155Z,71.93
2022-10-22T21:37:23.173Z,86.88
2022-10-22T21:39:25.179Z,87.75
2022-10-22T21:41:26.887Z,107.85
2022-10-22T21:43:28.703Z,100.80
2022-10-22T21:45:30.409Z,82.65
2022-10-22T21:47:32.102Z,77.07
2022-10-22T21:49:33.970Z,78.07
2022-10-22T21:51:35.780Z,68.55
2022-10-22T21:53:38.461Z,72.75
2022-10-22T21:55:41.273Z,74.90
2022-10-22T21:57:43.327Z,79.77
2022-10-22T21:59:45.211Z,48.70
2022-10-22T22:01:47.223Z,42.97
2022-10-22T22:03:50.574Z,41.15
2022-10-22T22:06:01.209Z,40.45
2022-10-22T22:08:03.102Z,41.78
2022-10-22T22:10:05.351Z,43.83
2022-10-22T22:12:07.093Z,46.60
2022-10-22T22:14:08.962Z,44.25
2022-10-22T22:16:14.199Z,38.22
2022-10-22T22:18:15.899Z,38.28
2022-10-22T22:20:17.893Z,38.13
2022-10-22T22:22:19.627Z,42.00
2022-10-22T22:24:21.358Z,40.13
2022-10-22T22:26:28.382Z,40.88
2022-10-22T22:28:32.566Z,42.47
2022-10-22T22:30:34.302Z,39.55
2022-10-22T22:32:36.068Z,43.92
2022-10-22T22:34:37.821Z,38.65
2022-10-22T22:36:44.304Z,44.50
2022-10-22T22:38:46.127Z,41.95
2022-10-22T22:40:47.881Z,51.08
2022-10-22T22:42:49.594Z,48.13
2022-10-22T22:44:51.629Z,46.80
2022-10-22T22:46:53.354Z,44.60
2022-10-22T22:48:55.142Z,47.45
2022-10-22T22:50:57.098Z,49.00
2022-10-22T22:52:58.805Z,53.08
2022-10-22T22:55:00.527Z,51.13
2022-10-22T22:57:02.429Z,59.25
2022-10-22T22:59:05.505Z,60.20
2022-10-22T23:01:14.450Z,62.05
2022-10-22T23:03:16.321Z,64.47
2022-10-22T23:05:18.052Z,62.72
2022-10-22T23:07:19.740Z,71.88
2022-10-22T23:09:21.728Z,64.60
2022-10-22T23:11:25.534Z,80.93
2022-10-22T23:13:27.245Z,70.88
2022-10-22T23:15:29.029Z,74.18
2022-10-22T23:17:30.820Z,67.82
2022-10-22T23:19:32.915Z,68.68
2022-10-22T23:21:37.640Z,76.80
2022-10-22T23:23:42.148Z,78.95
2022-10-22T23:25:45.379Z,79.32
2022-10-22T23:27:47.161Z,78.95
2022-10-22T23:29:48.866Z,84.28
2022-10-22T23:31:51.360Z,73.68
2022-10-22T23:33:53.200Z,98.85
2022-10-22T23:35:54.957Z,80.28
2022-10-22T23:37:56.657Z,79.95
2022-10-22T23:39:58.462Z,82.63
2022-10-22T23:42:00.617Z,85.88
2022-10-22T23:44:03.293Z,77.40
2022-10-22T23:46:07.151Z,82.97
2022-10-22T23:48:09.091Z,91.97
2022-10-22T23:50:10.774Z,83.30
2022-10-22T23:52:12.754Z,77.18
2022-10-22T23:54:16.779Z,91.82
2022-10-22T23:56:18.512Z,83.38
2022-10-22T23:58:20.386Z,83.38
